X  Tanca Dades meteorològiques de l'aviació METAR     EBBR Brussels Airport
Temperatura
14°C Temperatura
11°C Rosada
82% Humitat



Vent
14 KM/H
9 MPH
4 M/S
8 NUS



170°
Sud
Condicions actuals

Llum Showers, Pluja Llum Showers, Pluja
Pressió 998.92 (hPa) - 29.5 (inHg)
Visibilitat 6.2 (milla) - 10 (km)
Aeroport
Codi aeroport EBBR

Ubicació: Brussels Airport
Distància: 14 (km)

Metar:
EBBR 241650Z 17008KT 9999 -SHRA FEW035TCU BKN045 14/11 Q0999 TEMPO SHRA

Temps: 2020-09-24 18:50 CEST